首页
METAR-TAF:

METAR-TAF

机场 :

Jammu, 印度

纬度: 32-41-21N, 经度: 74-50-15E, 海拔: 314米

METAR: 丢失

时间: 17:44 (12:14 UTC)

预报

该预报发布于8小时和44分钟前的03:30 UTC
预报有效从09日的 06点(UTC)到 09日的 18点(UTC)
风速2节,风向多变
散云层高于2500英尺
散云层高于9000英尺
多云层高于20000英尺
成为
从 09日的 06点(UTC)到 09日的 08点(UTC)
风速5节,风向西南
散云层高于2500英尺
散云层高于20000英尺
短暂存在
从 09日的 10点(UTC)到 09日的 14点(UTC)
散云层高于2500英尺
散云层高于20000英尺

TAF: VIJU 090330Z 0906/0918 VRB02KT SCT025 SCT090 BKN200 BECMG 0906/0908 22005KT SCT025 SCT200 TEMPO 0910/0914 SCT025 FEW030TCU/CB SCT200

超过4000个机场的气象观测和天气预报(METAR&TAF报告)。

可查询的气象台以黄色和红色小点在地图上表示。

将鼠标移到小点上方,可查看气象台名称。

然后点击查看天气观测和预报。

如需切换地图:点击带黑十字的绿色按钮放大地图;点击带横线的绿色按钮缩小地图;或者点击绿色箭头查看邻近地区的地图。


METAR-TAF: